Time;durP1;ratioP1;P1;durP2;ratioP2;P2;SDS_P1;SDS_P2;PMS_P1;PMS_P2;Temp;Humidity;BMP_temperature;BMP_pressure;BME280_temperature;BME280_humidity;BME280_pressure;Samples;Min_cycle;Max_cycle;Signal;HPM_P1;HPM_P2
2023/06/05 00:01:03;;;;;;;4.88;1.35;;;;;;;;;;5018836;28;20041;-63
2023/06/05 00:03:29;;;;;;;4.57;1.60;;;;;;;;;;5030488;28;20033;-64
2023/06/05 00:05:55;;;;;;;4.50;1.45;;;;;;;;;;5033925;28;20025;-64
2023/06/05 00:08:20;;;;;;;4.57;1.43;;;;;;;;;;5019492;28;20025;-64
2023/06/05 00:10:45;;;;;;;4.72;1.75;;;;;;;;;;5023095;28;20452;-63
2023/06/05 00:13:10;;;;;;;6.73;1.73;;;;;;;;;;5032487;28;20051;-63
2023/06/05 00:15:37;;;;;;;4.65;1.58;;;;;;;;;;5025585;28;20773;-63
2023/06/05 00:18:03;;;;;;;6.35;1.55;;;;;;;;;;5024246;28;20076;-63
2023/06/05 00:20:28;;;;;;;4.97;1.60;;;;;;;;;;5019198;28;20488;-63
2023/06/05 00:22:54;;;;;;;3.70;1.30;;;;;;;;;;5026330;28;20030;-63
2023/06/05 00:25:20;;;;;;;4.57;1.67;;;;;;;;;;5027657;28;20021;-63
2023/06/05 00:27:45;;;;;;;6.40;1.63;;;;;;;;;;5030287;28;20455;-63
2023/06/05 00:30:10;;;;;;;5.78;2.00;;;;;;;;;;5021021;28;20476;-63
2023/06/05 00:32:36;;;;;;;3.45;1.20;;;;;;;;;;5030376;28;20025;-63
2023/06/05 00:35:01;;;;;;;4.18;1.42;;;;;;;;;;5020995;28;20017;-63
2023/06/05 00:37:27;;;;;;;5.10;1.60;;;;;;;;;;5028209;28;20017;-63
2023/06/05 00:39:52;;;;;;;4.15;1.50;;;;;;;;;;5021280;28;20374;-62
2023/06/05 00:42:17;;;;;;;3.87;1.30;;;;;;;;;;5029958;28;20030;-62
2023/06/05 00:44:42;;;;;;;5.13;1.70;;;;;;;;;;5029055;28;20375;-62
2023/06/05 00:47:07;;;;;;;5.88;1.42;;;;;;;;;;5022990;28;20022;-62
2023/06/05 00:49:32;;;;;;;3.97;1.40;;;;;;;;;;5017922;28;20045;-63
2023/06/05 00:51:58;;;;;;;3.53;1.38;;;;;;;;;;5021427;28;20025;-62
2023/06/05 00:54:23;;;;;;;5.75;1.65;;;;;;;;;;5026649;28;20095;-62
2023/06/05 00:56:48;;;;;;;5.60;1.90;;;;;;;;;;5025588;28;20079;-63
2023/06/05 00:59:14;;;;;;;4.28;1.50;;;;;;;;;;5023517;28;20025;-62
2023/06/05 01:01:40;;;;;;;5.30;1.80;;;;;;;;;;5022625;28;20509;-62
2023/06/05 01:04:05;;;;;;;4.70;1.63;;;;;;;;;;5017392;28;20017;-62
2023/06/05 01:06:31;;;;;;;5.22;1.73;;;;;;;;;;5016850;28;20034;-62
2023/06/05 01:08:56;;;;;;;4.50;1.40;;;;;;;;;;5017260;28;20029;-62
2023/06/05 01:11:25;;;;;;;4.13;1.52;;;;;;;;;;5026385;28;20463;-62
2023/06/05 01:13:54;;;;;;;4.10;1.52;;;;;;;;;;5022249;28;20551;-64
2023/06/05 01:16:19;;;;;;;5.93;1.70;;;;;;;;;;5022789;28;20095;-62
2023/06/05 01:18:45;;;;;;;4.40;1.63;;;;;;;;;;5025525;28;20018;-62
2023/06/05 01:21:14;;;;;;;5.10;1.60;;;;;;;;;;5017559;28;20473;-62
2023/06/05 01:23:44;;;;;;;4.75;1.58;;;;;;;;;;5022093;28;20493;-62
2023/06/05 01:26:10;;;;;;;4.03;1.50;;;;;;;;;;5028410;28;20037;-62
2023/06/05 01:28:35;;;;;;;5.10;1.40;;;;;;;;;;5021619;28;20029;-63
2023/06/05 01:31:13;;;;;;;4.25;1.42;;;;;;;;;;5022470;28;20056;-63
2023/06/05 01:33:43;;;;;;;;;;;;;;;;;;5026328;28;20064;-63
2023/06/05 01:36:09;;;;;;;4.40;1.50;;;;;;;;;;5019585;28;20361;-63
2023/06/05 01:38:35;;;;;;;;;;;;;;;;;;5023420;28;20028;-63
2023/06/05 01:41:01;;;;;;;4.03;1.30;;;;;;;;;;5028477;28;20410;-63
2023/06/05 01:43:27;;;;;;;3.88;1.40;;;;;;;;;;5028966;28;20052;-63
2023/06/05 01:45:52;;;;;;;4.47;1.43;;;;;;;;;;5016473;28;20497;-63
2023/06/05 01:48:18;;;;;;;4.43;1.30;;;;;;;;;;5014416;28;20017;-63
2023/06/05 01:50:43;;;;;;;6.70;1.50;;;;;;;;;;5023969;28;20026;-62
2023/06/05 01:53:09;;;;;;;4.60;1.57;;;;;;;;;;5021324;28;20025;-62
2023/06/05 01:55:39;;;;;;;4.05;1.30;;;;;;;;;;5022238;28;20024;-63
2023/06/05 01:58:04;;;;;;;4.63;1.45;;;;;;;;;;5023156;28;20033;-63
2023/06/05 02:00:29;;;;;;;5.47;1.33;;;;;;;;;;5026386;28;20017;-63
2023/06/05 02:02:54;;;;;;;3.78;1.48;;;;;;;;;;5019478;28;20475;-63
2023/06/05 02:05:23;;;;;;;3.50;1.42;;;;;;;;;;5021886;28;20056;-63
2023/06/05 02:07:58;;;;;;;6.95;1.67;;;;;;;;;;5020771;28;20478;-63
2023/06/05 02:10:23;;;;;;;4.45;1.40;;;;;;;;;;5019764;28;20397;-62
2023/06/05 02:12:48;;;;;;;5.63;1.40;;;;;;;;;;5028936;28;20051;-63
2023/06/05 02:15:14;;;;;;;4.20;1.30;;;;;;;;;;5018133;28;20037;-63
2023/06/05 02:17:44;;;;;;;6.90;1.75;;;;;;;;;;5018315;28;20060;-63
2023/06/05 02:20:11;;;;;;;6.25;1.50;;;;;;;;;;5022297;28;20426;-63
2023/06/05 02:22:37;;;;;;;4.80;1.10;;;;;;;;;;5022049;28;20042;-63
2023/06/05 02:25:02;;;;;;;4.10;1.48;;;;;;;;;;5017419;28;20087;-63
2023/06/05 02:27:27;;;;;;;4.10;1.30;;;;;;;;;;5023809;28;20025;-63
2023/06/05 02:29:52;;;;;;;4.63;1.30;;;;;;;;;;5017889;28;20623;-63
2023/06/05 02:32:18;;;;;;;4.23;1.30;;;;;;;;;;5026822;28;20021;-63
2023/06/05 02:34:47;;;;;;;6.90;1.42;;;;;;;;;;5022291;28;20032;-63
2023/06/05 02:37:12;;;;;;;4.22;1.30;;;;;;;;;;5027925;28;20512;-62
2023/06/05 02:39:37;;;;;;;4.50;1.48;;;;;;;;;;5016491;28;20033;-61
2023/06/05 02:42:02;;;;;;;3.70;1.25;;;;;;;;;;5026918;28;20041;-62
2023/06/05 02:44:27;;;;;;;4.30;1.50;;;;;;;;;;5020147;28;20062;-63
2023/06/05 02:46:53;;;;;;;3.75;1.30;;;;;;;;;;5019557;28;20028;-63
2023/06/05 02:49:18;;;;;;;3.90;1.38;;;;;;;;;;5024983;28;20021;-63
2023/06/05 02:51:43;;;;;;;4.53;1.40;;;;;;;;;;5024729;28;20128;-63
2023/06/05 02:54:09;;;;;;;3.72;1.25;;;;;;;;;;5025360;28;20033;-62
2023/06/05 02:56:34;;;;;;;5.38;1.70;;;;;;;;;;5025912;28;20104;-63
2023/06/05 02:59:02;;;;;;;5.88;1.60;;;;;;;;;;5028348;28;20112;-63
2023/06/05 03:01:34;;;;;;;5.22;1.40;;;;;;;;;;5031202;28;20136;-63
2023/06/05 03:04:02;;;;;;;3.80;1.35;;;;;;;;;;5018597;28;20551;-63
2023/06/05 03:06:28;;;;;;;4.10;1.40;;;;;;;;;;5032043;28;20044;-63
2023/06/05 03:08:55;;;;;;;7.05;1.60;;;;;;;;;;5023118;28;20097;-63
2023/06/05 03:11:21;;;;;;;4.28;1.40;;;;;;;;;;5026614;28;20028;-63
2023/06/05 03:13:46;;;;;;;4.53;1.52;;;;;;;;;;5020428;28;20029;-62
2023/06/05 03:16:12;;;;;;;5.03;1.40;;;;;;;;;;5023134;28;20025;-63
2023/06/05 03:18:38;;;;;;;;;;;;;;;;;;5026441;28;20025;-62
2023/06/05 03:21:03;;;;;;;4.97;1.50;;;;;;;;;;5022950;28;19916;-62
2023/06/05 03:23:28;;;;;;;4.33;1.60;;;;;;;;;;5040495;28;20181;-62
2023/06/05 03:25:54;;;;;;;5.18;1.45;;;;;;;;;;5028957;28;20439;-62
2023/06/05 03:28:20;;;;;;;5.55;1.58;;;;;;;;;;5021376;28;20067;-63
2023/06/05 03:30:45;;;;;;;5.28;1.40;;;;;;;;;;5033436;28;20040;-62
2023/06/05 03:33:10;;;;;;;4.30;1.40;;;;;;;;;;5022332;28;20386;-62
2023/06/05 03:35:36;;;;;;;3.90;1.40;;;;;;;;;;5025543;28;20022;-62
2023/06/05 03:38:01;;;;;;;5.90;1.30;;;;;;;;;;5028099;28;20477;-62
2023/06/05 03:40:26;;;;;;;5.68;1.80;;;;;;;;;;5020645;28;20497;-62
2023/06/05 03:42:52;;;;;;;5.13;1.85;;;;;;;;;;5033069;28;20400;-62
2023/06/05 03:45:18;;;;;;;5.00;1.50;;;;;;;;;;5022271;28;20104;-62
2023/06/05 03:47:44;;;;;;;4.57;1.65;;;;;;;;;;5023258;28;20372;-63
2023/06/05 03:50:10;;;;;;;4.50;1.48;;;;;;;;;;5022256;28;20018;-63
2023/06/05 03:52:37;;;;;;;4.80;1.30;;;;;;;;;;5027685;28;21820;-62
2023/06/05 03:55:04;;;;;;;4.15;1.48;;;;;;;;;;5019868;28;20030;-62
2023/06/05 03:57:29;;;;;;;5.07;1.67;;;;;;;;;;5029190;28;20021;-63
2023/06/05 03:59:54;;;;;;;3.60;1.50;;;;;;;;;;5024329;28;20075;-63
2023/06/05 04:02:20;;;;;;;4.85;1.50;;;;;;;;;;5027955;28;20524;-62
2023/06/05 04:04:45;;;;;;;4.17;1.30;;;;;;;;;;5027750;28;20025;-63
2023/06/05 04:07:11;;;;;;;5.85;1.70;;;;;;;;;;5023828;28;20029;-63
2023/06/05 04:09:36;;;;;;;4.10;1.27;;;;;;;;;;5036926;28;20175;-63
2023/06/05 04:12:01;;;;;;;5.05;1.58;;;;;;;;;;5031146;28;20045;-62
2023/06/05 04:14:26;;;;;;;7.43;1.50;;;;;;;;;;5028961;28;20413;-62
2023/06/05 04:16:51;;;;;;;6.82;1.80;;;;;;;;;;5023577;28;20079;-63
2023/06/05 04:19:16;;;;;;;6.60;1.60;;;;;;;;;;5037984;28;20022;-63
2023/06/05 04:21:42;;;;;;;7.97;1.80;;;;;;;;;;5020922;28;20026;-62
2023/06/05 04:24:09;;;;;;;4.75;1.63;;;;;;;;;;5016298;28;20022;-63
2023/06/05 04:26:35;;;;;;;5.60;1.75;;;;;;;;;;5021911;28;20032;-63
2023/06/05 04:29:02;;;;;;;3.92;1.42;;;;;;;;;;5021143;28;20017;-63
2023/06/05 04:31:28;;;;;;;6.68;1.85;;;;;;;;;;5023652;28;20033;-63
2023/06/05 04:33:53;;;;;;;6.00;1.75;;;;;;;;;;5017460;28;20033;-63
2023/06/05 04:36:19;;;;;;;6.38;1.73;;;;;;;;;;5017001;28;20018;-63
2023/06/05 04:38:45;;;;;;;6.20;1.75;;;;;;;;;;5026171;28;20159;-63
2023/06/05 04:41:10;;;;;;;;;;;;;;;;;;5032343;28;20096;-63
2023/06/05 04:43:36;;;;;;;7.55;1.80;;;;;;;;;;5019804;28;20023;-63
2023/06/05 04:46:01;;;;;;;6.77;1.47;;;;;;;;;;5021384;28;20040;-63
2023/06/05 04:48:27;;;;;;;4.93;1.77;;;;;;;;;;5031735;28;20420;-62
2023/06/05 04:50:53;;;;;;;13.02;2.03;;;;;;;;;;5030265;28;20110;-63
2023/06/05 04:53:18;;;;;;;5.75;1.92;;;;;;;;;;5026366;28;20462;-63
2023/06/05 04:55:45;;;;;;;5.33;1.73;;;;;;;;;;5034067;28;20539;-63
2023/06/05 04:58:10;;;;;;;8.07;1.98;;;;;;;;;;5012145;28;20017;-63
2023/06/05 05:00:35;;;;;;;8.10;2.28;;;;;;;;;;5016987;28;20030;-63
2023/06/05 05:03:01;;;;;;;5.75;2.10;;;;;;;;;;5019357;28;20083;-63
2023/06/05 05:05:26;;;;;;;6.22;1.98;;;;;;;;;;5027526;28;20306;-63
2023/06/05 05:07:51;;;;;;;8.70;2.23;;;;;;;;;;5018873;28;20041;-63
2023/06/05 05:10:16;;;;;;;5.23;2.30;;;;;;;;;;5026070;28;20030;-63
2023/06/05 05:12:41;;;;;;;5.38;2.10;;;;;;;;;;5020014;28;20527;-62
2023/06/05 05:15:07;;;;;;;8.93;1.88;;;;;;;;;;5027162;28;20140;-63
2023/06/05 05:17:32;;;;;;;7.15;2.17;;;;;;;;;;5021574;28;20018;-62
2023/06/05 05:19:57;;;;;;;9.30;2.00;;;;;;;;;;5042159;28;20080;-62
2023/06/05 05:22:23;;;;;;;7.30;1.90;;;;;;;;;;5042162;28;20061;-61
2023/06/05 05:24:48;;;;;;;8.80;2.25;;;;;;;;;;5022979;28;20040;-62
2023/06/05 05:27:13;;;;;;;6.57;2.20;;;;;;;;;;5031040;28;20055;-62
2023/06/05 05:29:38;;;;;;;7.63;2.23;;;;;;;;;;5031464;28;20048;-62
2023/06/05 05:32:05;;;;;;;11.82;2.10;;;;;;;;;;5031772;28;20061;-62
2023/06/05 05:34:30;;;;;;;;;;;;;;;;;;5032223;28;20100;-62
2023/06/05 05:36:56;;;;;;;9.05;2.03;;;;;;;;;;5031360;28;19986;-62
2023/06/05 05:39:21;;;;;;;7.80;2.10;;;;;;;;;;5030722;28;20384;-62
2023/06/05 05:41:46;;;;;;;9.57;2.07;;;;;;;;;;5025701;28;20064;-62
2023/06/05 05:44:11;;;;;;;9.10;2.20;;;;;;;;;;5031067;28;20128;-63
2023/06/05 05:46:37;;;;;;;9.63;2.88;;;;;;;;;;5026930;28;20083;-63
2023/06/05 05:49:02;;;;;;;9.20;2.40;;;;;;;;;;5016977;28;20018;-63
2023/06/05 05:51:27;;;;;;;8.23;2.38;;;;;;;;;;5023201;28;20028;-63
2023/06/05 05:53:52;;;;;;;4.93;2.17;;;;;;;;;;5040646;28;20406;-63
2023/06/05 05:56:17;;;;;;;7.77;2.00;;;;;;;;;;5027777;28;20079;-62
2023/06/05 05:58:44;;;;;;;7.60;2.13;;;;;;;;;;5033856;28;20029;-63
2023/06/05 06:01:09;;;;;;;6.07;1.95;;;;;;;;;;5046953;28;20031;-62
2023/06/05 06:03:37;;;;;;;6.47;2.13;;;;;;;;;;5033720;28;20034;-63
2023/06/05 06:06:03;;;;;;;8.38;2.25;;;;;;;;;;5030500;28;20017;-63
2023/06/05 06:08:28;;;;;;;9.38;2.17;;;;;;;;;;5034033;28;20033;-64
2023/06/05 06:10:55;;;;;;;5.03;1.80;;;;;;;;;;5025411;28;20013;-63
2023/06/05 06:13:20;;;;;;;6.72;2.10;;;;;;;;;;5023696;28;20027;-64
2023/06/05 06:15:46;;;;;;;7.28;2.08;;;;;;;;;;5033460;28;20084;-62
2023/06/05 06:18:11;;;;;;;8.73;2.38;;;;;;;;;;5034974;28;20029;-63
2023/06/05 06:20:36;;;;;;;5.83;2.10;;;;;;;;;;5029042;28;20033;-63
2023/06/05 06:23:02;;;;;;;5.18;1.67;;;;;;;;;;5033842;28;20083;-62
2023/06/05 06:25:28;;;;;;;6.03;2.10;;;;;;;;;;5019509;28;20108;-63
2023/06/05 06:27:54;;;;;;;10.25;2.10;;;;;;;;;;5026275;28;20026;-63
2023/06/05 06:30:19;;;;;;;7.53;1.80;;;;;;;;;;5027940;28;20026;-63
2023/06/05 06:32:45;;;;;;;9.80;1.67;;;;;;;;;;5032999;28;20080;-63
2023/06/05 06:35:10;;;;;;;7.73;1.87;;;;;;;;;;5036316;28;20499;-63
2023/06/05 06:37:35;;;;;;;8.60;2.08;;;;;;;;;;5028188;28;20851;-63
2023/06/05 06:40:00;;;;;;;13.23;2.13;;;;;;;;;;5016379;28;20519;-63
2023/06/05 06:42:28;;;;;;;7.57;2.00;;;;;;;;;;5028559;28;20408;-63
2023/06/05 06:44:55;;;;;;;13.75;2.13;;;;;;;;;;5030571;28;20021;-62
2023/06/05 06:47:21;;;;;;;11.15;1.83;;;;;;;;;;5035623;28;20044;-63
2023/06/05 06:49:46;;;;;;;9.18;2.00;;;;;;;;;;5049683;28;20100;-62
2023/06/05 06:52:12;;;;;;;7.93;2.00;;;;;;;;;;5040062;28;20217;-62
2023/06/05 06:54:37;;;;;;;10.00;2.05;;;;;;;;;;5033147;28;20042;-62
2023/06/05 06:57:03;;;;;;;9.55;2.05;;;;;;;;;;5020100;28;20641;-63
2023/06/05 06:59:28;;;;;;;10.80;2.20;;;;;;;;;;5045304;28;20032;-63
2023/06/05 07:02:13;;;;;;;7.32;1.98;;;;;;;;;;5032909;28;20033;-61
2023/06/05 07:04:38;;;;;;;10.10;2.05;;;;;;;;;;5031062;28;20100;-62
2023/06/05 07:07:04;;;;;;;6.03;1.90;;;;;;;;;;5031213;28;20034;-62
2023/06/05 07:09:29;;;;;;;7.90;2.22;;;;;;;;;;5030985;28;20077;-61
2023/06/05 07:11:54;;;;;;;9.53;2.40;;;;;;;;;;5029375;28;20022;-62
2023/06/05 07:14:19;;;;;;;8.33;2.00;;;;;;;;;;5024963;28;20467;-62
2023/06/05 07:16:45;;;;;;;9.07;1.97;;;;;;;;;;5028326;28;20050;-61
2023/06/05 07:19:10;;;;;;;8.73;2.10;;;;;;;;;;5028041;28;20032;-63
2023/06/05 07:21:37;;;;;;;7.67;2.00;;;;;;;;;;5028356;28;20053;-63
2023/06/05 07:24:03;;;;;;;5.80;1.70;;;;;;;;;;5027679;28;20025;-63
2023/06/05 07:26:28;;;;;;;6.75;1.70;;;;;;;;;;5026681;28;20044;-63
2023/06/05 07:28:53;;;;;;;6.07;1.67;;;;;;;;;;5030350;28;20520;-62
2023/06/05 07:31:21;;;;;;;5.65;1.95;;;;;;;;;;5022376;28;20079;-62
2023/06/05 07:33:46;;;;;;;6.22;1.90;;;;;;;;;;5030700;28;20013;-61
2023/06/05 07:36:11;;;;;;;9.65;2.00;;;;;;;;;;5033773;28;20068;-63
2023/06/05 07:38:38;;;;;;;6.47;2.10;;;;;;;;;;5031526;28;20508;-62
2023/06/05 07:41:03;;;;;;;6.05;1.90;;;;;;;;;;5032549;28;20362;-61
2023/06/05 07:43:28;;;;;;;6.75;1.90;;;;;;;;;;5033765;28;20024;-62
2023/06/05 07:45:53;;;;;;;6.85;1.70;;;;;;;;;;5033809;28;20022;-61
2023/06/05 07:48:19;;;;;;;7.13;1.80;;;;;;;;;;5033855;28;20025;-61
2023/06/05 07:50:44;;;;;;;7.57;1.77;;;;;;;;;;5033100;28;20142;-62
2023/06/05 07:53:09;;;;;;;7.50;1.70;;;;;;;;;;5028920;28;20021;-61
2023/06/05 07:55:35;;;;;;;7.80;2.00;;;;;;;;;;5032549;28;20032;-61
2023/06/05 07:58:00;;;;;;;6.88;2.05;;;;;;;;;;5033700;28;20029;-61
2023/06/05 08:00:26;;;;;;;6.75;2.00;;;;;;;;;;5024221;28;20017;-62
2023/06/05 08:02:52;;;;;;;10.00;1.90;;;;;;;;;;5030426;28;20034;-62
2023/06/05 08:05:17;;;;;;;6.53;1.83;;;;;;;;;;5032827;28;20022;-62
2023/06/05 08:07:42;;;;;;;9.65;1.98;;;;;;;;;;5033181;28;20470;-62
2023/06/05 08:10:08;;;;;;;6.32;1.98;;;;;;;;;;5030631;28;20021;-62
2023/06/05 08:12:33;;;;;;;7.53;1.80;;;;;;;;;;5028171;28;20437;-62
2023/06/05 08:14:58;;;;;;;8.20;2.00;;;;;;;;;;5033020;28;20049;-62
2023/06/05 08:17:23;;;;;;;8.00;2.10;;;;;;;;;;5032880;28;20044;-62
2023/06/05 08:19:49;;;;;;;7.38;1.90;;;;;;;;;;5022234;28;20021;-62
2023/06/05 08:22:14;;;;;;;5.83;1.93;;;;;;;;;;5032798;28;20045;-61
2023/06/05 08:24:39;;;;;;;5.63;2.10;;;;;;;;;;5032658;28;20113;-62
2023/06/05 08:27:05;;;;;;;5.83;1.80;;;;;;;;;;5033191;28;20490;-63
2023/06/05 08:29:30;;;;;;;7.05;2.17;;;;;;;;;;5032272;28;20026;-63
2023/06/05 08:31:55;;;;;;;8.33;2.00;;;;;;;;;;5028938;28;20013;-63
2023/06/05 08:34:20;;;;;;;8.53;2.30;;;;;;;;;;5031644;28;20541;-63
2023/06/05 08:36:45;;;;;;;7.33;2.03;;;;;;;;;;5032632;28;20014;-63
2023/06/05 08:39:11;;;;;;;6.57;2.00;;;;;;;;;;5032107;28;21118;-62
2023/06/05 08:41:37;;;;;;;7.25;2.47;;;;;;;;;;5032337;28;20025;-62
2023/06/05 08:44:02;;;;;;;7.22;2.15;;;;;;;;;;5032463;28;20049;-62
2023/06/05 08:46:30;;;;;;;7.87;2.10;;;;;;;;;;5028921;28;20049;-62
2023/06/05 08:48:55;;;;;;;7.07;2.10;;;;;;;;;;5029472;28;20444;-62
2023/06/05 08:51:21;;;;;;;7.68;2.05;;;;;;;;;;5032053;28;20029;-62
2023/06/05 08:54:04;;;;;;;7.30;2.10;;;;;;;;;;5031979;28;20058;-62
2023/06/05 08:56:31;;;;;;;4.13;1.83;;;;;;;;;;5030644;28;20026;-62
2023/06/05 08:58:57;;;;;;;6.15;2.20;;;;;;;;;;5032272;28;20024;-62
2023/06/05 09:01:22;;;;;;;5.50;2.20;;;;;;;;;;5030893;28;20043;-62
2023/06/05 09:03:47;;;;;;;7.22;2.22;;;;;;;;;;5030478;28;20061;-62
2023/06/05 09:06:12;;;;;;;8.38;2.33;;;;;;;;;;5031871;28;20551;-61
2023/06/05 09:08:37;;;;;;;4.95;1.98;;;;;;;;;;5031405;28;20020;-61
2023/06/05 09:11:21;;;;;;;8.43;2.50;;;;;;;;;;5031733;28;20025;-62
2023/06/05 09:13:47;;;;;;;6.43;2.50;;;;;;;;;;5027725;28;20456;-61
2023/06/05 09:16:12;;;;;;;7.10;2.35;;;;;;;;;;5031223;28;20060;-61
2023/06/05 09:18:38;;;;;;;;;;;;;;;;;;5031775;28;20100;-61
2023/06/05 09:21:11;;;;;;;6.72;2.45;;;;;;;;;;5031864;28;19992;-60
2023/06/05 09:23:37;;;;;;;8.20;2.50;;;;;;;;;;5031759;28;20025;-62
2023/06/05 09:26:03;;;;;;;;;;;;;;;;;;5032438;28;20043;-61
2023/06/05 09:28:28;;;;;;;5.57;2.35;;;;;;;;;;5023706;28;19948;-61
2023/06/05 09:30:55;;;;;;;;;;;;;;;;;;5031846;28;20064;-61
2023/06/05 09:33:20;;;;;;;5.97;2.58;;;;;;;;;;5031196;28;19912;-62
2023/06/05 09:35:45;;;;;;;6.50;2.43;;;;;;;;;;5031795;28;20026;-61
2023/06/05 09:38:10;;;;;;;;;;;;;;;;;;5027519;28;20385;-61
2023/06/05 09:40:38;;;;;;;6.93;2.50;;;;;;;;;;5030865;28;19958;-61
2023/06/05 09:43:12;;;;;;;9.15;2.50;;;;;;;;;;5029127;28;20026;-61
2023/06/05 09:45:41;;;;;;;6.75;2.63;;;;;;;;;;5031263;28;20449;-61
2023/06/05 09:48:14;;;;;;;6.90;3.03;;;;;;;;;;5032603;28;20018;-62
2023/06/05 09:50:39;;;;;;;5.53;2.45;;;;;;;;;;5032671;28;20032;-63
2023/06/05 09:53:05;;;;;;;;;;;;;;;;;;5028337;28;20026;-61
2023/06/05 09:55:30;;;;;;;5.00;2.55;;;;;;;;;;5030937;28;19905;-61
2023/06/05 09:57:56;;;;;;;;;;;;;;;;;;5030325;28;20108;-61
2023/06/05 10:00:21;;;;;;;5.65;2.70;;;;;;;;;;5030268;28;19905;-63
2023/06/05 10:02:47;;;;;;;6.35;2.65;;;;;;;;;;5030836;28;20117;-64
2023/06/05 10:05:13;;;;;;;;;;;;;;;;;;5031521;28;20037;-62
2023/06/05 10:07:41;;;;;;;7.18;2.33;;;;;;;;;;5024860;28;19909;-62
2023/06/05 10:10:09;;;;;;;6.97;2.17;;;;;;;;;;5030339;28;20381;-63
2023/06/05 10:12:34;;;;;;;7.05;2.60;;;;;;;;;;5029675;28;20023;-62
2023/06/05 10:15:00;;;;;;;10.98;2.55;;;;;;;;;;5028821;28;20022;-63
2023/06/05 10:17:25;;;;;;;;;;;;;;;;;;5031446;28;20033;-62
2023/06/05 10:19:51;;;;;;;6.68;2.30;;;;;;;;;;5030329;28;19927;-61
2023/06/05 10:22:16;;;;;;;;;;;;;;;;;;5029387;28;20025;-61
2023/06/05 10:24:45;;;;;;;5.07;2.20;;;;;;;;;;5031346;28;19913;-62
2023/06/05 10:27:10;;;;;;;7.78;2.30;;;;;;;;;;5029432;28;20024;-61
2023/06/05 10:29:47;;;;;;;6.88;2.20;;;;;;;;;;5030024;28;20010;-61
2023/06/05 10:32:20;;;;;;;6.63;2.42;;;;;;;;;;5030792;28;20032;-61
2023/06/05 10:34:50;;;;;;;5.10;2.30;;;;;;;;;;5029330;28;20033;-61
2023/06/05 10:37:21;;;;;;;8.02;2.03;;;;;;;;;;5030414;28;20045;-61
2023/06/05 10:39:46;;;;;;;5.10;2.00;;;;;;;;;;5030204;28;20021;-62
2023/06/05 10:42:11;;;;;;;6.97;2.40;;;;;;;;;;5025883;28;20504;-61
2023/06/05 10:44:43;;;;;;;6.13;2.20;;;;;;;;;;5028777;28;20079;-62
2023/06/05 10:47:26;;;;;;;3.97;1.90;;;;;;;;;;5030431;28;20017;-61
2023/06/05 10:50:10;;;;;;;6.72;2.30;;;;;;;;;;5030134;28;20049;-61
2023/06/05 10:52:35;;;;;;;5.53;2.30;;;;;;;;;;5027467;28;20022;-61
2023/06/05 10:55:01;;;;;;;6.05;2.22;;;;;;;;;;5030411;28;20021;-61
2023/06/05 10:57:46;;;;;;;4.93;2.00;;;;;;;;;;5030404;28;20025;-62
2023/06/05 11:00:12;;;;;;;5.00;2.08;;;;;;;;;;5028308;28;20056;-61
2023/06/05 11:02:46;;;;;;;5.28;1.92;;;;;;;;;;5020870;28;20621;-62
2023/06/05 11:05:11;;;;;;;6.07;2.13;;;;;;;;;;5030367;28;20104;-61
2023/06/05 11:07:37;;;;;;;7.07;2.13;;;;;;;;;;5030044;28;20104;-62
2023/06/05 11:10:05;;;;;;;5.32;2.08;;;;;;;;;;5032630;28;20037;-62
2023/06/05 11:12:42;;;;;;;6.60;2.17;;;;;;;;;;5034092;28;20161;-62
2023/06/05 11:15:08;;;;;;;4.95;2.40;;;;;;;;;;5033947;28;20093;-61
2023/06/05 11:17:40;;;;;;;5.35;2.55;;;;;;;;;;5024996;28;20104;-62
2023/06/05 11:20:09;;;;;;;5.82;2.22;;;;;;;;;;5033599;28;20419;-62
2023/06/05 11:22:50;;;;;;;5.85;2.25;;;;;;;;;;5034015;28;20053;-62
2023/06/05 11:25:18;;;;;;;5.60;2.25;;;;;;;;;;5029684;28;20029;-62
2023/06/05 11:27:43;;;;;;;5.43;2.10;;;;;;;;;;5033602;28;20018;-62
2023/06/05 11:30:08;;;;;;;;;;;;;;;;;;5034072;28;20017;-62
2023/06/05 11:32:33;;;;;;;6.22;2.10;;;;;;;;;;5034198;28;19905;-61
2023/06/05 11:34:59;;;;;;;;;;;;;;;;;;5032884;28;20033;-62
2023/06/05 11:37:25;;;;;;;4.60;1.95;;;;;;;;;;5031167;28;19962;-62
2023/06/05 11:39:50;;;;;;;5.55;2.10;;;;;;;;;;5031891;28;20028;-62
2023/06/05 11:42:23;;;;;;;6.07;2.13;;;;;;;;;;5033377;28;20021;-62
2023/06/05 11:44:48;;;;;;;4.95;2.00;;;;;;;;;;5033370;28;20478;-62
2023/06/05 11:47:13;;;;;;;;;;;;;;;;;;5034081;28;20024;-61
2023/06/05 11:49:38;;;;;;;5.85;2.25;;;;;;;;;;5029252;28;19913;-62
2023/06/05 11:52:03;;;;;;;;;;;;;;;;;;5033641;28;20029;-62
2023/06/05 11:54:39;;;;;;;6.75;2.03;;;;;;;;;;5032048;28;19920;-62
2023/06/05 11:57:08;;;;;;;6.10;2.08;;;;;;;;;;5032847;28;20013;-62
2023/06/05 11:59:37;;;;;;;4.93;1.83;;;;;;;;;;5032947;28;20014;-61
2023/06/05 12:02:03;;;;;;;5.45;2.10;;;;;;;;;;5033233;28;20025;-62
2023/06/05 12:04:28;;;;;;;;;;;;;;;;;;5033811;28;20021;-62
2023/06/05 12:06:53;;;;;;;7.03;2.13;;;;;;;;;;5030877;28;19909;-62
2023/06/05 12:09:18;;;;;;;;;;;;;;;;;;5031877;28;20022;-62
2023/06/05 12:11:48;;;;;;;6.83;2.07;;;;;;;;;;5031083;28;19912;-62
2023/06/05 12:14:13;;;;;;;5.63;2.20;;;;;;;;;;5033210;28;20036;-62
2023/06/05 12:16:38;;;;;;;;;;;;;;;;;;5031753;28;20161;-62
2023/06/05 12:19:11;;;;;;;5.20;2.10;;;;;;;;;;5032324;28;19905;-62
2023/06/05 12:21:36;;;;;;;5.30;2.10;;;;;;;;;;5028895;28;20029;-62
2023/06/05 12:24:01;;;;;;;;;;;;;;;;;;5029328;28;20024;-62
2023/06/05 12:26:30;;;;;;;5.00;2.17;;;;;;;;;;5016402;28;20300;-61
2023/06/05 12:29:05;;;;;;;8.50;2.20;;;;;;;;;;5032337;28;20021;-62
2023/06/05 12:31:35;;;;;;;6.40;2.13;;;;;;;;;;5028597;28;20025;-62
2023/06/05 12:34:00;;;;;;;4.80;2.10;;;;;;;;;;5026640;28;20503;-62
2023/06/05 12:36:25;;;;;;;;;;;;;;;;;;5033376;28;20018;-60
2023/06/05 12:38:50;;;;;;;7.25;2.25;;;;;;;;;;5032407;28;19909;-61
2023/06/05 12:41:15;;;;;;;;;;;;;;;;;;5033233;28;20028;-61
2023/06/05 12:43:40;;;;;;;7.10;2.20;;;;;;;;;;5032521;28;19913;-61
2023/06/05 12:46:07;;;;;;;;;;;;;;;;;;5023945;28;20013;-62
2023/06/05 12:48:32;;;;;;;5.47;2.22;;;;;;;;;;5027382;28;19909;-61
2023/06/05 12:50:58;;;;;;;;;;;;;;;;;;5032506;28;20048;-61
2023/06/05 12:53:23;;;;;;;5.95;2.03;;;;;;;;;;5031931;28;19913;-61
2023/06/05 12:55:48;;;;;;;;;;;;;;;;;;5032956;28;20025;-61
2023/06/05 12:58:13;;;;;;;5.22;2.22;;;;;;;;;;5031948;28;19905;-61
2023/06/05 13:00:38;;;;;;;;;;;;;;;;;;5030980;28;20021;-61
2023/06/05 13:03:04;;;;;;;6.20;2.30;;;;;;;;;;5022409;28;19924;-60
2023/06/05 13:05:29;;;;;;;;;;;;;;;;;;5032616;28;20018;-62
2023/06/05 13:07:54;;;;;;;6.70;2.20;;;;;;;;;;5031835;28;19925;-61
2023/06/05 13:10:19;;;;;;;;;;;;;;;;;;5027282;28;20480;-62
2023/06/05 13:12:45;;;;;;;5.68;2.25;;;;;;;;;;5031746;28;19911;-62
2023/06/05 13:15:10;;;;;;;;;;;;;;;;;;5032585;28;20025;-61
2023/06/05 13:17:37;;;;;;;5.60;2.10;;;;;;;;;;5031395;28;19906;-62
2023/06/05 13:20:10;;;;;;;5.53;2.15;;;;;;;;;;5031155;28;20425;-61
2023/06/05 13:22:35;;;;;;;5.93;2.40;;;;;;;;;;5031290;28;20503;-61
2023/06/05 13:25:00;;;;;;;;;;;;;;;;;;5025396;28;20018;-62
2023/06/05 13:27:25;;;;;;;5.57;2.10;;;;;;;;;;5021141;28;19968;-61
2023/06/05 13:29:50;;;;;;;;;;;;;;;;;;5031718;28;20020;-61
2023/06/05 13:32:16;;;;;;;5.72;2.33;;;;;;;;;;5032279;28;19909;-61
2023/06/05 13:34:41;;;;;;;;;;;;;;;;;;5031625;28;20021;-62
2023/06/05 13:37:06;;;;;;;7.15;2.30;;;;;;;;;;5035419;28;19932;-62
2023/06/05 13:39:31;;;;;;;;;;;;;;;;;;5031525;28;20121;-62
2023/06/05 13:41:56;;;;;;;5.05;2.10;;;;;;;;;;5031183;28;19913;-62
2023/06/05 13:44:21;;;;;;;;;;;;;;;;;;5018290;28;20381;-61
2023/06/05 13:46:46;;;;;;;6.38;2.20;;;;;;;;;;5033816;28;19999;-61
2023/06/05 13:49:11;;;;;;;;;;;;;;;;;;5035199;28;20362;-61
2023/06/05 13:51:38;;;;;;;8.40;2.22;;;;;;;;;;5020794;28;19917;-61
2023/06/05 13:54:03;;;;;;;6.65;2.50;;;;;;;;;;5031188;28;20500;-61
2023/06/05 13:56:28;;;;;;;;;;;;;;;;;;5024650;28;20021;-61
2023/06/05 13:58:54;;;;;;;6.28;2.30;;;;;;;;;;5022241;28;19909;-61
2023/06/05 14:01:19;;;;;;;5.63;2.08;;;;;;;;;;5030995;28;20021;-61
2023/06/05 14:03:46;;;;;;;6.27;2.20;;;;;;;;;;5031101;28;20552;-61
2023/06/05 14:06:11;;;;;;;6.13;2.45;;;;;;;;;;5026588;28;20014;-61
2023/06/05 14:08:36;;;;;;;;;;;;;;;;;;5030565;28;20032;-62
2023/06/05 14:11:02;;;;;;;6.68;2.22;;;;;;;;;;5030659;28;19937;-61
2023/06/05 14:13:27;;;;;;;;;;;;;;;;;;5025793;28;20079;-61
2023/06/05 14:15:52;;;;;;;4.97;2.13;;;;;;;;;;5030631;28;19912;-61
2023/06/05 14:18:17;;;;;;;;;;;;;;;;;;5023213;28;20025;-61
2023/06/05 14:20:42;;;;;;;5.65;2.30;;;;;;;;;;5029953;28;19905;-61
2023/06/05 14:23:07;;;;;;;;;;;;;;;;;;5031205;28;20029;-61
2023/06/05 14:25:32;;;;;;;7.10;2.33;;;;;;;;;;5030986;28;19905;-63
2023/06/05 14:27:57;;;;;;;;;;;;;;;;;;5031156;28;20104;-62
2023/06/05 14:30:23;;;;;;;4.78;2.15;;;;;;;;;;5029868;28;19939;-63
2023/06/05 14:32:48;;;;;;;;;;;;;;;;;;5028733;28;20052;-62
2023/06/05 14:35:14;;;;;;;5.72;2.38;;;;;;;;;;5030313;28;19905;-62
2023/06/05 14:37:39;;;;;;;;;;;;;;;;;;5030727;28;20033;-63
2023/06/05 14:40:05;;;;;;;4.85;2.20;;;;;;;;;;5030331;28;19909;-62
2023/06/05 14:42:30;;;;;;;6.78;2.30;;;;;;;;;;5025808;28;20037;-62
2023/06/05 14:44:55;;;;;;;;;;;;;;;;;;5034124;28;20385;-62
2023/06/05 14:47:20;;;;;;;5.63;2.30;;;;;;;;;;5034657;28;19905;-63
2023/06/05 14:49:45;;;;;;;6.60;1.80;;;;;;;;;;5033838;28;20021;-62